Aérodrome :
LOGIN :

S'inscrire | Disclaimer

   EN    FR    IT 

 










Légende :    VFR   VFR Marginal   IFR   IFR Intensif   IFR Très Intensif
Visi : 
Plafond : 
>= 8 km
>= 3000ft
5 à 8 km
1000 à 3000 ft
1500m à 5 km
500 à 1000 ft
800 à 1500m
200 à 500 ft
< 800m
< 200 ft
Symboles :   Orages  Brouillard  Fortes neiges  Fortes précipitations  Vent > 20 kt
SIGMETs :   Divers  Orages  Givrage  Turbulence  Onde Orograph.  Cendres Volcan.







- Altitude de l'aérodrome : 485 ft
- Code IATA : QSA


LELL - Sabadell

DERNIER METAR :
  • 301230Z 17011KT 130V200 9999 FEW020 SCT045 20/13 Q1009

METARs EXPIRÉS :
  • 301200Z 17008KT 140V230 9999 FEW020 SCT050 19/12 Q1010
  • 301130Z 18010KT 150V210 9999 FEW020 BKN055 18/13 Q1010
  • 301100Z 17011KT 150V210 9999 FEW020 SCT050 18/13 Q1011
  • 301030Z 19008KT 150V240 9999 FEW017 SCT025 BKN035 17/13 Q1011
  • 301000Z 13003KT 070V200 9999 FEW017 SCT025 BKN050 16/13 Q1011

TAF TAF LELL
Valide du 30 à 09h jusqu'au 01 à 09h UTC


300800Z 3009/0109 VRB03KT 9999 FEW015 BKN030 TX19/3013Z TN07/0106Z
PROB30
TEMPO 3020/3024 4000 SHRA FEW020TCU BKN025
BECMG 3009/3011 19012G22KT
BECMG 3019/3022 27008KT
Pas de NOTAMs connus pour ce terrain.



MET'MAP, la Météo Aéronautique d'un coup d'oeil ! - Copyright ORBIFLY Décembre 2007 - Disclaimer

ORBIFLY MET'MAP TEAM :

Programmation & Développement : Alexandra Zaïnal
Conception & Développement : Baudouin d'Aumeries
Co-Programmation & Développement : Marc-Olivier Méhu
Soutien technique & logistique : Manuel Goepfert

Contact : metmap@orbifly.com




SOURCES & CREDITS :

   NOAA